Statewide Weather Sensors

Route Weather Station Name Milepost Date / Time Surface Status Surface Temp Precip Intensity Wind Avg Wind Gust Dir Dewpoint Humidity Air Temp Visibility
I 25 Wyo Hill 3.52 Feb 04, 2023 08:30 pm     None None 23 mph 30 mph W 10.4°F 30% 39.2°F > 1/2 mi
I 25 Whitaker 28.1 Feb 04, 2023 08:30 pm Dry 26.4°F None None 17 mph 22 mph W 14.0°F 46% 32.0°F > 1/2 mi
I 25 Bear Creek 46.77 Feb 04, 2023 08:30 pm Dry 32.4°F None None 19 mph 31 mph NW 15.8°F 40% 37.4°F > 1/2 mi
I 25 Bordeaux 70.8 Feb 04, 2023 08:30 pm Dry 35.1°F None None 39 mph 46 mph W 14.0°F 32% 42.8°F > 1/2 mi
I 25 Coleman 98.7 Feb 04, 2023 08:30 pm Dry 28.9°F None None 11 mph 16 mph NW 19.4°F 45% 39.2°F > 1/2 mi
I 25 Platte/Converse County Line 119.9 Feb 04, 2023 08:30 pm Dry 26.2°F None None 9 mph 9 mph W 21.2°F 55% 33.8°F < 1/4 mi
I 25 Deer Creek 164.2 Feb 04, 2023 08:30 pm Dry 32.4°F None None 16 mph 21 mph SW 19.4°F 50% 35.6°F > 1/2 mi
I 25 Hat Six 181.67 Feb 04, 2023 08:30 pm N/A   None None 20 mph 33 mph W 19.4°F 44% 39.2°F > 1/2 mi
I 25 F Street Hill 189.51 Feb 04, 2023 08:30 pm Dry 29.7°F None None 17 mph 25 mph SW 19.4°F 53% 33.8°F > 1/2 mi
I 25 Twenty Mile Hill 207.2 Feb 04, 2023 08:30 pm Dry 25.5°F None None 19 mph 22 mph SW 17.6°F 70% 24.8°F > 1/2 mi
I 25 Smokey Gap 228.58 Feb 04, 2023 08:30 pm Dry 19.2°F None None 20 mph 25 mph S 17.6°F 71% 26.6°F > 1/2 mi
I 25 Tisdale 238.87 Feb 04, 2023 08:31 pm Dry 24.6°F None None 17 mph 21 mph SW 19.4°F 59% 32.0°F < 1/2 mi
I 25 I-25 Divide 267.3 Jan 12, 2023 11:42 am                      
I 80 Evanston POE .06 Feb 04, 2023 08:30 pm N/A 158.0°F None None 0 mph 4 mph N 12.2°F 79% 15.8°F > 1/2 mi
I 80 Evanston 4.2 Feb 04, 2023 08:30 pm N/A   None None 1 mph 3 mph NW 17.6°F 75% 24.8°F > 1/2 mi
I 80 Bear River Drive 6.94 Aug 18, 2022 05:58 am                      
I 80 Painter 10.16 Feb 04, 2023 08:30 pm Dry 25.2°F None None 4 mph 8 mph E 14.0°F 65% 24.8°F > 1/2 mi
I 80 First Divide 13.86 Feb 04, 2023 08:30 pm Dry 28.6°F None None 3 mph 4 mph SW 12.2°F 50% 28.4°F > 1/2 mi
I 80 US 189 Interchange 17.66 Feb 04, 2023 08:30 pm Dry 27.3°F None None 3 mph 5 mph SW 14.0°F 62% 26.6°F > 1/2 mi
I 80 Coal Road 20.95 Feb 04, 2023 08:30 pm Dry 28.4°F None None 1 mph 5 mph SW 14.0°F 54% 28.4°F > 1/2 mi
I 80 Leroy 23.35 Feb 04, 2023 08:30 pm Dry 27.1°F None None 2 mph 2 mph NW 14.0°F 68% 23.0°F > 1/2 mi
I 80 French 27.6 Feb 04, 2023 08:30 pm Dry 28.0°F None None 4 mph 5 mph SW 14.0°F 52% 28.4°F > 1/2 mi
I 80 Church Butte 52.65 Feb 04, 2023 08:30 pm Dry 26.1°F None None 5 mph 6 mph S 17.6°F 59% 28.4°F > 1/2 mi
I 80 Peru Hill 82.31 Feb 04, 2023 08:30 pm Dry 25.0°F None None 5 mph 6 mph E 14.0°F 78% 19.4°F > 1/2 mi
I 80 Green River Tunnel 90.5 Feb 04, 2023 08:30 pm Dry 27.1°F None None 1 mph 3 mph NW 15.8°F 68% 24.8°F > 1/2 mi
I 80 Rock Springs West 97.9 Feb 04, 2023 08:30 pm N/A   None None 2 mph 4 mph W 15.8°F 71% 24.8°F > 1/2 mi
I 80 Baxter Road 111.5 Feb 04, 2023 08:30 pm Dry 25.2°F None None 1 mph 2 mph E   67%   > 1/2 mi
I 80 Mile Marker 124.5 124.5 Feb 04, 2023 08:30 pm Dry 21.0°F None None 1 mph 2 mph NW 15.8°F 75% 23.0°F > 1/2 mi
I 80 Point of Rocks 129.8 Feb 04, 2023 08:30 pm Dry 20.5°F None None 3 mph 7 mph NE 15.8°F 76% 23.0°F > 1/2 mi
I 80 Black Butte 134.91 Feb 04, 2023 08:30 pm Dry 21.7°F None None 10 mph 14 mph SW 15.8°F 71% 24.8°F > 1/2 mi
I 80 Bitter Creek 141.83 Feb 04, 2023 08:30 pm N/A 158.0°F None None 13 mph 14 mph SW 12.2°F 68% 21.2°F > 1/2 mi
I 80 Tipton 156.72 Feb 04, 2023 08:30 pm Dry 24.8°F None None 0 mph 0 mph SW 15.8°F 65% 26.6°F > 1/2 mi
I 80 Continental Divide 184.3 Feb 04, 2023 08:30 pm Ice Watch 19.4°F None None 9 mph 10 mph S 12.2°F 71% 19.4°F > 1/2 mi
I 80 Sinclair 221.7 Feb 04, 2023 08:30 pm Dry 25.9°F None None 8 mph 22 mph SW 17.6°F 53% 32.0°F > 1/2 mi
I 80 Walcott Junction 234.66 Feb 04, 2023 08:30 pm Dry 23.2°F None None 18 mph 24 mph SW 14.0°F 55% 28.4°F > 1/2 mi
I 80 Dana Ridge 244.8 Feb 04, 2023 08:30 pm Dry 25.5°F None None 22 mph 27 mph SW 14.0°F 59% 26.6°F > 1/2 mi
I 80 Mile Marker 249.1 249.1 Feb 04, 2023 08:30 pm N/A   None None 22 mph 26 mph SW 14.0°F 57% 26.6°F > 1/2 mi
I 80 Halleck Ridge 252.16 Feb 04, 2023 08:30 pm Dry 25.7°F None None 27 mph 31 mph NW 14.0°F 52% 28.4°F > 1/2 mi
I 80 Elk Mountain 256.17 Feb 04, 2023 08:30 pm Dry 27.9°F None None 30 mph 46 mph S 14.0°F 48% 30.2°F > 1/2 mi
I 80 County Road 402 262 Feb 04, 2023 08:30 pm Ice Watch 25.0°F None None 33 mph 53 mph SW 14.0°F 54% 28.4°F > 1/2 mi
I 80 Wagonhound 266.58 Feb 04, 2023 08:30 pm Dry 22.5°F None None 30 mph 37 mph SW 12.2°F 53% 28.4°F > 1/2 mi
I 80 Foote Creek 269.5 Feb 04, 2023 08:30 pm Trace Moisture 22.5°F None None 44 mph 51 mph SE 12.2°F 44% 30.2°F > 1/2 mi
I 80 Arlington 271.8 Feb 04, 2023 08:30 pm Dry 26.2°F None None 43 mph 55 mph W 8.6°F 39% 32.0°F > 1/2 mi
I 80 Arlington East 273.85 Feb 04, 2023 08:30 pm Dry 27.7°F None None 38 mph 49 mph S 6.8°F 32% 32.0°F > 1/2 mi
I 80 Cooper Cove 279.36 Feb 04, 2023 08:30 pm Dry 24.8°F None None 41 mph 54 mph SE 8.6°F 32% 33.8°F > 1/2 mi
I 80 Strouss Hill 283.75 Feb 04, 2023 08:30 pm N/A   None None 35 mph 53 mph N 6.8°F 31% 33.8°F > 1/2 mi
I 80 Quealy Dome 289.5 Feb 04, 2023 08:30 pm Trace Moisture 23.7°F None None 39 mph 49 mph SW     35.6°F > 1/2 mi
I 80 Herrick Lane 297.66 Feb 04, 2023 08:30 pm Dry 28.4°F None None 11 mph 17 mph SW 12.2°F 41% 33.8°F > 1/2 mi
I 80 Summit East 325.8 Feb 04, 2023 08:30 pm Dry 19.4°F None None 18 mph 26 mph S 8.6°F 45% 26.6°F > 1/2 mi
I 80 Vedauwoo 329.4 Feb 04, 2023 08:30 pm Dry 18.7°F None None 24 mph 31 mph SW 8.6°F 43% 28.4°F > 1/2 mi
I 80 Lone Tree 333.32 Feb 04, 2023 08:30 pm Dry 26.1°F None None 26 mph 34 mph W 8.6°F 41% 30.2°F > 1/2 mi
I 80 Buford East 336.1 Feb 04, 2023 08:30 pm Dry 27.1°F None None 31 mph 40 mph SW 10.4°F 41% 30.2°F > 1/2 mi
I 80 Remount Road 340.5 Feb 04, 2023 08:30 pm Dry 27.1°F None None 29 mph 35 mph SW 10.4°F 41% 32.0°F > 1/2 mi
I 80 Otto 347.69 Feb 04, 2023 08:30 pm Dry 32.5°F None None       10.4°F 33% 35.6°F > 1/2 mi
I 80 MP 353 353 Feb 04, 2023 08:30 pm Trace Moisture 33.4°F None None 35 mph 42 mph W 10.4°F 32% 37.4°F > 1/2 mi
I 80 Cheyenne East 373 Feb 04, 2023 08:30 pm Dry 34.7°F None None 3 mph 6 mph NE 15.8°F 46% 35.6°F > 1/2 mi
I 90 Montana State Line .1 Feb 04, 2023 08:30 pm Trace Moisture 26.2°F None None 4 mph 8 mph NE 19.4°F 60% 32.0°F > 1/2 mi
I 90 Pompey Creek 35.3 Feb 04, 2023 08:30 pm Dry 32.2°F None None 9 mph 10 mph W 12.2°F 32% 39.2°F > 1/2 mi
I 90 Sheridan/Johnson County Line 41.33 Jan 29, 2023 07:04 pm                      
I 90 Piney Creek Interchange 44.7 Feb 04, 2023 08:30 pm Dry 31.8°F None   5 mph 9 mph W 12.2°F 51% 26.6°F  
I 90 Kearny Divide 45.33 Feb 04, 2023 08:30 pm Dry 26.4°F None None 4 mph 6 mph W 15.8°F 43% 35.6°F > 1/2 mi
I 90 Indian Creek Road 83.3 Jan 29, 2023 04:18 am                      
I 90 Dead Horse 91.5 Feb 04, 2023 08:30 pm Ice Watch 28.4°F None None 4 mph 6 mph SE 26.6°F 96% 28.4°F > 1/2 mi
I 90 Mile Marker 108 108 Feb 04, 2023 08:30 pm Dry 25.2°F None None 11 mph 12 mph S 21.2°F 67% 30.2°F > 1/2 mi
I 90 Inyan Kara 170.5 Feb 04, 2023 08:30 pm Trace Moisture 48.0°F None   4 mph 5 mph E 23.0°F 91% 24.8°F  
I 90 Beulah 205.9 Feb 04, 2023 08:30 pm Dry 32.9°F None None 12 mph 16 mph W 21.2°F 45% 41.0°F > 1/2 mi
US 14 Ucross 27.83 Feb 04, 2023 08:30 pm Dry 27.3°F None None 2 mph 4 mph SW 15.8°F 83% 21.2°F > 1/2 mi
US 14 Granite Pass 38.95 Feb 04, 2023 08:30 pm N/A   None None 11 mph 13 mph NE 12.2°F 75% 17.6°F > 1/2 mi
US 16 Big Horn County Line 44.01 Feb 04, 2023 08:30 pm Dry 15.3°F None None 3 mph 7 mph NW 10.4°F 68% 19.4°F > 1/2 mi
US 191 Farson 40.45 Feb 04, 2023 08:30 pm Ice Watch 14.4°F None   1 mph 2 mph NE -2.2°F 83% 1.4°F  
US 191 Warren Bridge 119.9 Feb 04, 2023 08:30 pm Ice Warning 17.8°F None None 2 mph 4 mph SW 3.2°F 86% 6.8°F > 1/2 mi
US 20 Natrona 30 Feb 04, 2023 08:30 pm N/A   None None 11 mph 15 mph N 12.2°F 72% 19.4°F > 1/2 mi
US 20 Hiland 57.4 Feb 04, 2023 08:30 pm N/A 24.4°F None None 21 mph 24 mph SW 15.8°F 70% 23.0°F > 1/2 mi
US 20 Van Tassell 57.85 Feb 04, 2023 08:30 pm Dry 23.0°F None None 9 mph 11 mph NW 19.4°F 67% 28.4°F > 1/2 mi
US 26 Wind River Lake 26.05 Feb 04, 2023 08:30 pm Ice Warning 30.0°F None None 9 mph 12 mph N 10.4°F 77% 15.8°F > 1/2 mi
US 287 Pumpkin Vine 420.4 Feb 04, 2023 08:30 pm Dry 25.9°F None None 20 mph 37 mph W 8.6°F 37% 32.0°F > 1/2 mi
US 30 Sage Junction 34 Feb 04, 2023 08:30 pm Dry 21.7°F None None 2 mph 6 mph N 12.2°F 83% 15.8°F > 1/2 mi
US 30 Nugget Canyon 39.7 Sep 27, 2021 12:52 pm                      
US 85 Gun Barrel 46.8 Feb 04, 2023 08:30 pm Dry 29.5°F None None 12 mph 19 mph N 19.4°F 52% 35.6°F > 1/2 mi
US 85 Four Corners 247.2 Feb 04, 2023 08:30 pm Dry 19.6°F None None 6 mph 9 mph N 15.8°F 70% 24.8°F > 1/2 mi
WY 120 Meeteetse 61.5 Feb 04, 2023 08:30 pm Dry 25.7°F None   7 mph 9 mph S -20.2°F 9% 30.2°F > 1/2 mi
WY 210 Wildcat Trail 21.52 Feb 04, 2023 08:30 pm Dry 32.2°F None None 8 mph 11 mph SE 8.6°F 33% 33.8°F > 1/2 mi
WY 210 Hynds Lodge Road 24.55 Feb 04, 2023 08:30 pm N/A   None None 20 mph 32 mph SW 8.6°F 34% 33.8°F > 1/2 mi
WY 22 Teton Pass 11.2 Feb 04, 2023 08:30 pm Ice Watch 18.7°F None None 1 mph 2 mph S 15.8°F 90% 17.6°F > 1/2 mi
WY 220 Pathfinder Hill 80.1 Feb 04, 2023 08:30 pm Chemically Wet 19.4°F None None 11 mph 14 mph SW 15.8°F 66% 26.6°F > 1/2 mi
WY 230 Skyline 230 113.2 Feb 04, 2023 08:30 pm N/A   None                
WY 258 Outer Drive 13.77 Feb 04, 2023 08:30 pm Dry 24.6°F None None 25 mph 37 mph SW 17.6°F 46% 35.6°F > 1/2 mi
WY 28 New South Pass 41.4 Feb 04, 2023 08:30 pm Dry 16.0°F None None 18 mph 24 mph W 12.2°F 63% 23.0°F > 1/2 mi
WY 28 Lower Red Canyon 59.71 Feb 04, 2023 08:30 pm Dry 23.7°F None None 5 mph 8 mph S 14.0°F 48% 32.0°F > 1/2 mi
WY 296 Chief Joseph 32.96 Feb 04, 2023 08:30 pm Ice Warning 16.0°F None None 19 mph 27 mph NW 15.8°F 75% 23.0°F > 1/2 mi
WY 372 Shute Creek 34 Feb 04, 2023 08:30 pm N/A   None None 6 mph 7 mph NW 6.8°F 82% 12.2°F > 1/2 mi
WY 387 Pine Tree Junction 131.79 Feb 01, 2023 11:44 pm                      
WY 487 Shirley Rim 37 Feb 04, 2023 08:30 pm Ice Watch 20.1°F None None 24 mph 30 mph W 17.6°F 70% 24.8°F > 1/2 mi
WY 59 Belle Fourche 87 Feb 04, 2023 08:30 pm Dry 25.7°F None   8 mph 11 mph W 19.4°F 78% 24.8°F  
WY 789 Beaver Rim 48.1 Feb 04, 2023 08:30 pm     None None 28 mph 35 mph SW -27.4°F 9% 21.2°F > 1/2 mi

Contact Us
Copyright 2021 Disclaimer Privacy Policy Media